createdAt,value
2018-07-28T00:00:15.552Z,99.90
2018-07-28T00:02:46.073Z,99.90
2018-07-28T00:05:16.835Z,99.90
2018-07-28T00:10:17.505Z,99.90
2018-07-28T00:12:48.202Z,99.90
2018-07-28T00:15:18.871Z,99.90
2018-07-28T00:17:49.524Z,99.90
2018-07-28T00:20:20.510Z,99.90
2018-07-28T00:22:51.309Z,99.90
2018-07-28T00:25:21.793Z,99.90
2018-07-28T00:27:52.263Z,99.90
2018-07-28T00:30:23.176Z,99.90
2018-07-28T00:32:53.628Z,99.90
2018-07-28T00:35:24.324Z,99.90
2018-07-28T00:37:54.935Z,99.90
2018-07-28T00:40:25.544Z,99.90
2018-07-28T00:42:56.059Z,99.90
2018-07-28T00:45:26.543Z,99.90
2018-07-28T00:47:56.923Z,99.90
2018-07-28T00:50:27.533Z,99.90
2018-07-28T00:52:58.026Z,99.90
2018-07-28T00:55:28.539Z,99.90
2018-07-28T00:57:59.024Z,99.90
2018-07-28T01:00:29.671Z,99.90
2018-07-28T01:03:00.118Z,99.90
2018-07-28T01:08:00.844Z,99.90
2018-07-28T01:10:31.520Z,99.90
2018-07-28T01:13:02.159Z,99.90
2018-07-28T01:15:32.700Z,99.90
2018-07-28T01:18:03.412Z,99.90
2018-07-28T01:20:33.933Z,99.90
2018-07-28T01:23:04.323Z,99.90
2018-07-28T01:25:34.908Z,99.90
2018-07-28T01:28:05.494Z,99.90
2018-07-28T01:30:36.056Z,99.90
2018-07-28T01:33:06.565Z,99.90
2018-07-28T01:35:37.159Z,99.90
2018-07-28T01:38:07.608Z,99.90
2018-07-28T01:40:38.150Z,99.90
2018-07-28T01:43:08.644Z,99.90
2018-07-28T01:45:39.236Z,99.90
2018-07-28T01:48:09.759Z,99.90
2018-07-28T01:50:40.256Z,99.90
2018-07-28T01:53:10.982Z,99.90
2018-07-28T01:55:41.599Z,99.90
2018-07-28T01:58:12.188Z,99.90
2018-07-28T02:00:42.695Z,99.90
2018-07-28T02:03:13.211Z,99.90
2018-07-28T02:05:43.657Z,99.90
2018-07-28T02:08:14.119Z,99.90
2018-07-28T02:10:44.832Z,99.90
2018-07-28T02:13:15.295Z,99.90
2018-07-28T02:15:45.882Z,99.90
2018-07-28T02:18:16.758Z,99.90
2018-07-28T02:23:17.714Z,99.90
2018-07-28T02:25:48.284Z,99.90
2018-07-28T02:28:18.720Z,99.90
2018-07-28T02:30:49.493Z,99.90
2018-07-28T02:33:20.275Z,99.90
2018-07-28T02:35:50.896Z,99.90
2018-07-28T02:38:21.392Z,99.90
2018-07-28T02:40:52.084Z,99.90
2018-07-28T02:43:22.572Z,99.90
2018-07-28T02:45:53.195Z,99.90
2018-07-28T02:48:23.960Z,99.90
2018-07-28T02:50:54.915Z,99.90
2018-07-28T02:53:25.510Z,99.90
2018-07-28T02:55:56.228Z,99.90
2018-07-28T02:58:26.793Z,99.90
2018-07-28T03:00:57.300Z,99.90
2018-07-28T03:03:27.700Z,99.90
2018-07-28T03:05:58.292Z,99.90
2018-07-28T03:08:28.731Z,99.90
2018-07-28T03:10:59.396Z,99.90
2018-07-28T03:13:29.863Z,99.90
2018-07-28T03:16:00.293Z,99.90
2018-07-28T03:18:31.188Z,99.90
2018-07-28T03:21:01.772Z,99.90
2018-07-28T03:23:32.434Z,99.90
2018-07-28T03:26:03.120Z,99.90
2018-07-28T03:28:33.753Z,99.90
2018-07-28T03:31:04.433Z,99.90
2018-07-28T03:33:34.971Z,99.90
2018-07-28T03:36:05.795Z,99.90
2018-07-28T03:38:36.450Z,99.90
2018-07-28T03:41:07.407Z,99.90
2018-07-28T03:43:38.056Z,99.90
2018-07-28T03:46:08.892Z,99.90
2018-07-28T03:48:39.391Z,99.90
2018-07-28T03:51:10.056Z,99.90
2018-07-28T03:53:40.681Z,99.90
2018-07-28T03:56:11.002Z,99.90
2018-07-28T03:58:41.491Z,99.90
2018-07-28T04:01:12.029Z,99.90
2018-07-28T04:03:42.620Z,99.90
2018-07-28T04:06:13.232Z,99.90
2018-07-28T04:08:43.859Z,99.90
2018-07-28T04:11:14.424Z,99.90
2018-07-28T04:13:45.016Z,99.90
2018-07-28T04:16:15.648Z,99.90
2018-07-28T04:18:46.530Z,99.90
2018-07-28T04:21:17.296Z,99.90
2018-07-28T04:23:47.984Z,99.90
2018-07-28T04:26:18.429Z,99.90
2018-07-28T04:28:48.869Z,99.90
2018-07-28T04:31:19.482Z,99.90
2018-07-28T04:33:50.039Z,99.90
2018-07-28T04:36:20.523Z,99.90
2018-07-28T04:38:51.045Z,99.90
2018-07-28T04:41:21.548Z,99.90
2018-07-28T04:43:52.121Z,99.90
2018-07-28T04:46:22.547Z,99.90
2018-07-28T04:48:52.971Z,99.90
2018-07-28T04:51:23.712Z,99.90
2018-07-28T04:53:54.200Z,99.90
2018-07-28T04:56:25.143Z,99.90
2018-07-28T04:58:55.796Z,99.90
2018-07-28T05:01:26.484Z,99.90
2018-07-28T05:03:57.268Z,99.90
2018-07-28T05:06:27.745Z,99.90
2018-07-28T05:08:58.327Z,99.90
2018-07-28T05:11:28.869Z,99.90
2018-07-28T05:13:59.416Z,99.90
2018-07-28T05:16:29.832Z,99.90
2018-07-28T05:19:00.276Z,99.90
2018-07-28T05:21:30.904Z,99.90
2018-07-28T05:24:01.520Z,99.90
2018-07-28T05:26:32.062Z,99.90
2018-07-28T05:29:02.527Z,99.90
2018-07-28T05:31:32.963Z,99.90
2018-07-28T05:34:03.427Z,99.90
2018-07-28T05:36:34.064Z,99.90
2018-07-28T05:39:06.967Z,99.90
2018-07-28T05:41:37.706Z,99.90
2018-07-28T05:44:08.407Z,99.90
2018-07-28T05:46:39.079Z,99.90
2018-07-28T05:49:09.604Z,98.90
2018-07-28T05:51:40.143Z,97.90
2018-07-28T05:54:10.828Z,99.00
2018-07-28T05:56:41.279Z,98.80
2018-07-28T05:59:11.722Z,98.70
2018-07-28T06:01:42.440Z,95.00
2018-07-28T06:04:13.118Z,93.80
2018-07-28T06:06:43.653Z,90.10
2018-07-28T06:11:44.307Z,75.50
2018-07-28T06:14:14.768Z,79.60
2018-07-28T06:16:45.282Z,77.60
2018-07-28T06:19:15.704Z,69.10
2018-07-28T06:21:46.187Z,62.50
2018-07-28T06:24:16.657Z,54.90
2018-07-28T06:26:47.196Z,50.70
2018-07-28T06:29:17.776Z,50.00
2018-07-28T06:31:48.592Z,49.90
2018-07-28T06:34:19.123Z,46.50
2018-07-28T06:36:49.737Z,45.20
2018-07-28T06:41:50.444Z,49.00
2018-07-28T06:44:20.746Z,51.10
2018-07-28T06:46:51.290Z,55.40
2018-07-28T06:49:21.928Z,59.00
2018-07-28T06:51:52.711Z,63.30
2018-07-28T06:56:53.366Z,69.60
2018-07-28T06:59:23.877Z,73.50
2018-07-28T07:01:54.676Z,76.30
2018-07-28T07:04:25.228Z,79.60
2018-07-28T07:06:55.808Z,82.30
2018-07-28T07:09:26.402Z,86.10
2018-07-28T07:11:56.818Z,86.30
2018-07-28T07:14:27.474Z,90.10
2018-07-28T07:16:57.939Z,90.20
2018-07-28T07:19:28.432Z,91.50
2018-07-28T07:21:59.229Z,94.90
2018-07-28T07:24:29.788Z,95.80
2018-07-28T07:27:00.401Z,96.80
2018-07-28T07:29:30.814Z,97.00
2018-07-28T07:32:01.217Z,99.70
2018-07-28T07:34:31.685Z,99.90
2018-07-28T07:37:02.309Z,99.90
2018-07-28T07:39:32.803Z,99.90
2018-07-28T07:42:03.264Z,99.90
2018-07-28T07:44:33.834Z,99.90
2018-07-28T07:47:04.308Z,99.90
2018-07-28T07:49:34.687Z,98.40
2018-07-28T07:52:05.781Z,99.40
2018-07-28T07:54:36.451Z,99.60
2018-07-28T07:57:08.006Z,98.80
2018-07-28T07:59:38.527Z,95.50
2018-07-28T08:02:09.183Z,94.50
2018-07-28T08:04:39.923Z,94.70
2018-07-28T08:07:10.371Z,95.40
2018-07-28T08:09:40.764Z,96.20
2018-07-28T08:12:11.231Z,97.30
2018-07-28T08:14:41.798Z,98.00
2018-07-28T08:19:42.396Z,98.00
2018-07-28T08:22:12.928Z,97.70
2018-07-28T08:24:43.488Z,98.30
2018-07-28T08:27:13.957Z,98.60
2018-07-28T08:29:44.539Z,98.50
2018-07-28T08:32:15.075Z,99.50
2018-07-28T08:34:45.719Z,99.90
2018-07-28T08:37:16.275Z,99.90
2018-07-28T08:39:47.261Z,99.90
2018-07-28T08:42:17.853Z,99.90
2018-07-28T08:44:48.579Z,99.90
2018-07-28T08:47:19.217Z,99.90
2018-07-28T08:49:49.836Z,99.90
2018-07-28T08:52:20.379Z,99.90
2018-07-28T08:54:50.935Z,99.90
2018-07-28T08:57:21.499Z,99.90
2018-07-28T08:59:51.955Z,99.90
2018-07-28T09:04:52.519Z,99.90
2018-07-28T09:07:23.291Z,99.90
2018-07-28T09:09:53.778Z,99.90
2018-07-28T09:12:24.353Z,99.90
2018-07-28T09:17:25.049Z,99.90
2018-07-28T09:19:55.709Z,99.90
2018-07-28T09:22:26.222Z,99.90
2018-07-28T09:24:56.875Z,99.90
2018-07-28T09:29:57.539Z,99.90
2018-07-28T09:32:27.991Z,99.90
2018-07-28T09:34:58.453Z,99.90
2018-07-28T09:37:29.077Z,99.90
2018-07-28T09:39:59.757Z,99.90
2018-07-28T09:42:30.360Z,99.90
2018-07-28T09:47:30.753Z,99.90
2018-07-28T09:50:01.165Z,99.90
2018-07-28T09:52:32.059Z,99.90
2018-07-28T09:55:02.625Z,99.50
2018-07-28T09:57:33.274Z,99.10
2018-07-28T10:00:03.795Z,98.30
2018-07-28T10:02:34.285Z,98.30
2018-07-28T10:05:04.735Z,96.90
2018-07-28T10:07:35.196Z,95.10
2018-07-28T10:10:05.882Z,91.60
2018-07-28T10:12:36.627Z,90.30
2018-07-28T10:15:07.275Z,84.30
2018-07-28T10:17:37.687Z,71.50
2018-07-28T10:20:08.311Z,68.10
2018-07-28T10:22:38.784Z,58.70
2018-07-28T10:25:09.652Z,54.00
2018-07-28T10:27:40.288Z,52.40
2018-07-28T10:30:10.880Z,57.20
2018-07-28T10:32:41.391Z,58.90
2018-07-28T10:35:12.919Z,57.60
2018-07-28T10:37:43.772Z,53.20
2018-07-28T10:40:14.186Z,49.90
2018-07-28T10:42:44.600Z,50.10
2018-07-28T10:45:15.111Z,51.40
2018-07-28T10:47:45.659Z,50.20
2018-07-28T10:52:46.517Z,51.80
2018-07-28T10:55:19.205Z,54.10
2018-07-28T10:57:53.309Z,55.40
2018-07-28T11:00:27.198Z,54.60
2018-07-28T11:03:11.095Z,58.20
2018-07-28T11:05:41.733Z,58.30
2018-07-28T11:08:12.195Z,57.90
2018-07-28T11:10:42.715Z,55.00
2018-07-28T11:13:13.316Z,52.40
2018-07-28T11:15:43.842Z,49.40
2018-07-28T11:18:14.715Z,50.70
2018-07-28T11:20:45.303Z,55.80
2018-07-28T11:23:31.026Z,58.80
2018-07-28T11:26:01.888Z,57.00
2018-07-28T11:28:32.231Z,55.90
2018-07-28T11:31:02.715Z,56.40
2018-07-28T11:33:49.498Z,58.20
2018-07-28T11:36:36.319Z,61.90
2018-07-28T11:39:23.225Z,63.90
2018-07-28T11:42:10.049Z,67.90
2018-07-28T11:45:00.571Z,70.10
2018-07-28T11:47:31.004Z,73.00
2018-07-28T11:50:01.340Z,75.00
2018-07-28T11:52:31.751Z,77.50
2018-07-28T11:55:02.256Z,79.10
2018-07-28T11:57:32.717Z,81.10
2018-07-28T12:00:03.301Z,79.40
2018-07-28T12:02:33.744Z,78.40
2018-07-28T12:05:04.363Z,74.60
2018-07-28T12:07:34.944Z,77.10
2018-07-28T12:10:07.351Z,79.70
2018-07-28T12:12:37.996Z,82.30
2018-07-28T12:15:08.990Z,80.90
2018-07-28T12:17:39.401Z,82.80
2018-07-28T12:20:10.080Z,82.30
2018-07-28T12:22:40.466Z,83.10
2018-07-28T12:25:11.116Z,82.30
2018-07-28T12:27:41.800Z,83.10
2018-07-28T12:30:12.546Z,83.70
2018-07-28T12:32:43.060Z,83.50
2018-07-28T12:35:13.614Z,83.20
2018-07-28T12:37:44.215Z,83.10
2018-07-28T12:40:14.779Z,84.20
2018-07-28T12:42:45.281Z,83.60
2018-07-28T12:45:15.662Z,83.50
2018-07-28T12:47:46.660Z,84.60
2018-07-28T12:50:17.189Z,83.70
2018-07-28T12:52:47.928Z,84.00
2018-07-28T12:55:18.814Z,85.50
2018-07-28T12:57:49.375Z,84.30
2018-07-28T13:00:19.979Z,83.20
2018-07-28T13:02:50.520Z,82.20
2018-07-28T13:05:20.949Z,81.00
2018-07-28T13:07:51.419Z,78.90
2018-07-28T13:10:21.909Z,82.50
2018-07-28T13:12:52.424Z,81.40
2018-07-28T13:15:22.855Z,80.50
2018-07-28T13:17:53.585Z,79.40
2018-07-28T13:20:23.980Z,76.40
2018-07-28T13:22:54.360Z,77.00
2018-07-28T13:25:25.040Z,76.20
2018-07-28T13:27:55.472Z,78.40
2018-07-28T13:30:25.997Z,78.70
2018-07-28T13:32:56.596Z,79.70
2018-07-28T13:35:27.249Z,76.40
2018-07-28T13:37:57.862Z,78.20
2018-07-28T13:40:28.371Z,80.60
2018-07-28T13:42:58.819Z,79.40
2018-07-28T13:45:29.420Z,80.20
2018-07-28T13:47:59.847Z,79.60
2018-07-28T13:50:30.373Z,81.80
2018-07-28T13:53:01.045Z,80.10
2018-07-28T13:55:31.455Z,79.90
2018-07-28T13:58:02.009Z,82.30
2018-07-28T14:00:32.482Z,79.70
2018-07-28T14:03:02.905Z,82.20
2018-07-28T14:05:33.329Z,80.70
2018-07-28T14:08:03.991Z,84.80
2018-07-28T14:10:34.419Z,84.50
2018-07-28T14:13:05.126Z,79.70
2018-07-28T14:15:35.719Z,78.10
2018-07-28T14:18:06.603Z,78.60
2018-07-28T14:20:37.239Z,81.00
2018-07-28T14:23:07.797Z,83.60
2018-07-28T14:25:38.330Z,85.20
2018-07-28T14:28:08.747Z,86.10
2018-07-28T14:30:39.259Z,88.10
2018-07-28T14:33:09.708Z,89.40
2018-07-28T14:35:40.307Z,90.50
2018-07-28T14:38:11.019Z,90.00
2018-07-28T14:40:41.675Z,90.40
2018-07-28T14:43:12.186Z,90.60
2018-07-28T14:45:42.574Z,90.20
2018-07-28T14:48:13.046Z,90.90
2018-07-28T14:50:43.686Z,91.00
2018-07-28T14:53:14.373Z,91.50
2018-07-28T14:55:44.924Z,92.60
2018-07-28T14:58:15.283Z,93.00
2018-07-28T15:00:45.962Z,93.30
2018-07-28T15:03:16.675Z,93.50
2018-07-28T15:05:47.156Z,92.60
2018-07-28T15:08:17.919Z,92.60
2018-07-28T15:10:48.454Z,92.80
2018-07-28T15:13:19.308Z,91.40
2018-07-28T15:15:50.104Z,92.20
2018-07-28T15:18:20.500Z,91.40
2018-07-28T15:20:51.152Z,91.40
2018-07-28T15:23:21.596Z,91.20
2018-07-28T15:25:52.137Z,90.80
2018-07-28T15:28:22.553Z,91.10
2018-07-28T15:30:54.576Z,90.40
2018-07-28T15:33:24.957Z,90.40
2018-07-28T15:35:55.879Z,90.40
2018-07-28T15:38:26.556Z,91.20
2018-07-28T15:40:57.178Z,91.20
2018-07-28T15:43:27.820Z,91.70
2018-07-28T15:45:58.405Z,92.10
2018-07-28T15:48:28.820Z,92.90
2018-07-28T15:50:59.377Z,92.60
2018-07-28T15:53:29.871Z,93.00
2018-07-28T15:56:00.688Z,93.20
2018-07-28T15:58:31.100Z,93.80
2018-07-28T16:01:01.539Z,94.00
2018-07-28T16:03:31.937Z,94.60
2018-07-28T16:06:02.781Z,95.00
2018-07-28T16:08:33.364Z,95.40
2018-07-28T16:11:04.125Z,95.80
2018-07-28T16:13:34.705Z,95.50
2018-07-28T16:16:05.115Z,96.00
2018-07-28T16:18:35.600Z,96.10
2018-07-28T16:21:06.013Z,97.10
2018-07-28T16:23:36.549Z,97.70
2018-07-28T16:26:07.785Z,98.60
2018-07-28T16:28:38.243Z,98.80
2018-07-28T16:31:08.991Z,99.30
2018-07-28T16:33:39.427Z,99.70
2018-07-28T16:36:09.963Z,99.90
2018-07-28T16:38:40.600Z,99.90
2018-07-28T16:41:11.036Z,99.90
2018-07-28T16:43:41.491Z,99.90
2018-07-28T16:46:11.997Z,99.90
2018-07-28T16:48:42.470Z,99.90
2018-07-28T16:51:12.941Z,99.90
2018-07-28T16:53:43.476Z,99.90
2018-07-28T16:56:14.075Z,99.90
2018-07-28T16:58:44.595Z,99.90
2018-07-28T17:01:15.115Z,99.90
2018-07-28T17:03:45.644Z,99.90
2018-07-28T17:06:16.233Z,99.90
2018-07-28T17:08:46.687Z,99.90
2018-07-28T17:11:17.296Z,99.90
2018-07-28T17:13:47.952Z,99.90
2018-07-28T17:16:18.402Z,99.90
2018-07-28T17:18:49.067Z,99.90
2018-07-28T17:21:19.739Z,99.90
2018-07-28T17:23:50.184Z,99.90
2018-07-28T17:26:20.909Z,99.90
2018-07-28T17:28:51.642Z,99.90
2018-07-28T17:31:22.180Z,99.90
2018-07-28T17:36:22.801Z,99.90
2018-07-28T17:38:53.632Z,99.90
2018-07-28T17:41:24.169Z,99.90
2018-07-28T17:46:24.805Z,99.90
2018-07-28T17:48:55.776Z,99.90
2018-07-28T17:51:26.188Z,99.90
2018-07-28T17:53:56.753Z,99.90
2018-07-28T17:56:27.288Z,99.90
2018-07-28T17:58:57.778Z,99.90
2018-07-28T18:01:28.391Z,99.90
2018-07-28T18:03:58.922Z,99.90
2018-07-28T18:06:29.419Z,99.90
2018-07-28T18:09:00.097Z,99.90
2018-07-28T18:11:30.488Z,99.90
2018-07-28T18:14:01.035Z,99.90
2018-07-28T18:16:31.985Z,99.90
2018-07-28T18:19:02.723Z,99.90
2018-07-28T18:21:33.388Z,99.90
2018-07-28T18:24:04.045Z,99.90
2018-07-28T18:26:34.787Z,99.90
2018-07-28T18:29:05.411Z,99.90
2018-07-28T18:31:35.927Z,99.90
2018-07-28T18:34:06.588Z,99.90
2018-07-28T18:36:37.137Z,99.90
2018-07-28T18:39:10.708Z,99.90
2018-07-28T18:41:41.375Z,99.90
2018-07-28T18:44:11.877Z,99.90
2018-07-28T18:46:42.631Z,99.90
2018-07-28T18:49:13.272Z,99.90
2018-07-28T18:51:43.920Z,99.90
2018-07-28T18:54:14.433Z,99.90
2018-07-28T18:56:45.087Z,99.90
2018-07-28T18:59:15.569Z,99.90
2018-07-28T19:01:46.344Z,99.90
2018-07-28T19:04:16.868Z,99.90
2018-07-28T19:06:47.379Z,99.90
2018-07-28T19:09:22.931Z,99.90
2018-07-28T19:11:53.398Z,99.90
2018-07-28T19:14:29.050Z,99.90
2018-07-28T19:16:59.577Z,99.90
2018-07-28T19:19:30.045Z,99.90
2018-07-28T19:24:30.783Z,99.90
2018-07-28T19:27:01.555Z,99.90
2018-07-28T19:29:36.935Z,99.90
2018-07-28T19:32:07.306Z,99.90
2018-07-28T19:34:37.855Z,99.90
2018-07-28T19:37:13.447Z,99.90
2018-07-28T19:39:43.874Z,99.90
2018-07-28T19:42:19.397Z,99.90
2018-07-28T19:44:50.164Z,99.90
2018-07-28T19:47:20.822Z,99.90
2018-07-28T19:49:51.442Z,99.90
2018-07-28T19:52:22.318Z,99.90
2018-07-28T19:57:23.103Z,99.90
2018-07-28T19:59:53.631Z,99.90
2018-07-28T20:02:24.128Z,99.90
2018-07-28T20:04:54.631Z,99.90
2018-07-28T20:07:25.245Z,99.90
2018-07-28T20:09:55.803Z,99.90
2018-07-28T20:12:26.248Z,99.90
2018-07-28T20:14:56.844Z,99.90
2018-07-28T20:17:27.640Z,99.90
2018-07-28T20:19:58.124Z,99.90
2018-07-28T20:22:28.477Z,99.90
2018-07-28T20:24:58.956Z,99.90
2018-07-28T20:27:29.577Z,99.90
2018-07-28T20:30:00.051Z,99.90
2018-07-28T20:32:30.616Z,99.90
2018-07-28T20:37:31.203Z,99.90
2018-07-28T20:40:01.796Z,99.90
2018-07-28T20:42:32.367Z,99.90
2018-07-28T20:45:02.877Z,99.90
2018-07-28T20:47:33.512Z,99.90
2018-07-28T20:50:04.001Z,99.90
2018-07-28T20:52:34.503Z,99.90
2018-07-28T20:55:05.042Z,99.90
2018-07-28T20:57:35.676Z,99.90
2018-07-28T21:00:06.182Z,99.90
2018-07-28T21:02:36.663Z,99.90
2018-07-28T21:05:07.297Z,99.90
2018-07-28T21:07:37.892Z,99.90
2018-07-28T21:10:08.480Z,99.90
2018-07-28T21:12:38.983Z,99.90
2018-07-28T21:15:09.384Z,99.90
2018-07-28T21:17:40.150Z,99.90
2018-07-28T21:20:10.554Z,99.90
2018-07-28T21:22:41.137Z,99.90
2018-07-28T21:25:11.848Z,99.90
2018-07-28T21:27:42.409Z,99.90
2018-07-28T21:30:12.848Z,99.90
2018-07-28T21:32:43.355Z,99.90
2018-07-28T21:35:14.088Z,99.90
2018-07-28T21:37:45.653Z,99.90
2018-07-28T21:40:16.238Z,99.90
2018-07-28T21:42:46.880Z,99.90
2018-07-28T21:45:17.515Z,99.90
2018-07-28T21:47:47.981Z,99.90
2018-07-28T21:50:18.937Z,99.90
2018-07-28T21:52:49.527Z,99.90
2018-07-28T21:55:20.360Z,99.90
2018-07-28T21:57:50.918Z,99.90
2018-07-28T22:00:21.489Z,99.90
2018-07-28T22:02:51.960Z,99.90
2018-07-28T22:05:22.339Z,99.90
2018-07-28T22:07:52.823Z,99.90
2018-07-28T22:10:23.453Z,99.90
2018-07-28T22:12:53.969Z,99.90
2018-07-28T22:15:24.457Z,99.90
2018-07-28T22:17:55.012Z,99.90
2018-07-28T22:20:25.433Z,99.90
2018-07-28T22:22:55.873Z,99.90
2018-07-28T22:25:26.561Z,99.90
2018-07-28T22:27:57.243Z,99.90
2018-07-28T22:30:27.776Z,99.90
2018-07-28T22:32:58.455Z,99.90
2018-07-28T22:35:28.884Z,99.90
2018-07-28T22:37:59.412Z,99.90
2018-07-28T22:40:29.876Z,99.90
2018-07-28T22:43:00.425Z,99.90
2018-07-28T22:45:30.916Z,99.90
2018-07-28T22:48:01.512Z,99.90
2018-07-28T22:50:32.200Z,99.90
2018-07-28T22:53:02.922Z,99.90
2018-07-28T22:55:33.493Z,99.90
2018-07-28T22:58:04.066Z,99.90
2018-07-28T23:00:34.828Z,99.90
2018-07-28T23:03:05.272Z,99.90
2018-07-28T23:05:35.783Z,99.90
2018-07-28T23:08:06.419Z,99.90
2018-07-28T23:10:36.944Z,99.90
2018-07-28T23:13:07.703Z,99.90
2018-07-28T23:15:38.273Z,99.90
2018-07-28T23:18:08.735Z,99.90
2018-07-28T23:20:39.156Z,99.90
2018-07-28T23:23:09.756Z,99.90
2018-07-28T23:25:40.207Z,99.90
2018-07-28T23:30:40.864Z,99.90
2018-07-28T23:33:11.378Z,99.90
2018-07-28T23:35:41.916Z,99.90
2018-07-28T23:38:12.436Z,99.90
2018-07-28T23:40:43.267Z,99.90
2018-07-28T23:45:43.930Z,99.90
2018-07-28T23:48:15.512Z,99.90
2018-07-28T23:50:46.096Z,99.90
2018-07-28T23:53:16.916Z,99.90
2018-07-28T23:55:47.720Z,99.90
2018-07-28T23:58:18.368Z,99.90
